createdAt,value
2019-02-12T00:01:00.573Z,19.15
2019-02-12T00:03:43.161Z,19.67
2019-02-12T00:06:16.245Z,20.12
2019-02-12T00:12:05.165Z,20.55
2019-02-12T00:15:28.173Z,22.15
2019-02-12T00:21:39.607Z,23.07
2019-02-12T00:24:25.583Z,22.80
2019-02-12T00:27:38.097Z,22.73
2019-02-12T00:41:01.944Z,19.30
2019-02-12T00:43:40.207Z,23.42
2019-02-12T00:49:46.892Z,24.45
2019-02-12T00:52:52.613Z,25.65
2019-02-12T00:56:07.315Z,24.75
2019-02-12T00:59:19.904Z,25.97
2019-02-12T01:02:11.823Z,24.90
2019-02-12T01:08:36.614Z,25.68
2019-02-12T01:11:48.675Z,25.57
2019-02-12T01:20:34.345Z,30.20
2019-02-12T01:23:26.800Z,29.25
2019-02-12T01:25:59.404Z,30.57
2019-02-12T01:32:07.732Z,33.63
2019-02-12T01:35:06.411Z,35.10
2019-02-12T01:38:15.450Z,34.55
2019-02-12T01:47:18.535Z,33.90
2019-02-12T01:50:12.403Z,39.53
2019-02-12T01:59:24.893Z,34.45
2019-02-12T02:02:34.403Z,34.40
2019-02-12T02:05:20.189Z,36.17
2019-02-12T02:11:52.261Z,36.33
2019-02-12T02:14:58.055Z,41.02
2019-02-12T02:18:00.821Z,40.17
2019-02-12T02:27:22.688Z,39.40
2019-02-12T02:30:47.487Z,39.60
2019-02-12T02:34:07.441Z,37.55
2019-02-12T02:36:58.630Z,34.70
2019-02-12T02:46:09.187Z,37.53
2019-02-12T02:52:24.939Z,34.10
2019-02-12T02:55:08.971Z,36.25
2019-02-12T02:58:27.249Z,36.95
2019-02-12T03:04:47.664Z,36.10
2019-02-12T03:17:42.999Z,38.25
2019-02-12T03:20:15.758Z,42.98
2019-02-12T03:23:04.099Z,37.08
2019-02-12T03:25:39.360Z,40.90
2019-02-12T03:28:18.074Z,40.63
2019-02-12T03:31:32.535Z,40.03
2019-02-12T03:34:20.368Z,43.00
2019-02-12T03:37:20.315Z,38.48
2019-02-12T03:40:20.316Z,39.53
2019-02-12T03:43:48.866Z,36.77
2019-02-12T03:50:08.236Z,32.85
2019-02-12T03:53:15.802Z,34.78
2019-02-12T03:55:58.292Z,32.93
2019-02-12T03:58:51.790Z,31.85
2019-02-12T04:01:38.285Z,35.73
2019-02-12T04:04:17.944Z,34.43
2019-02-12T04:07:10.487Z,32.10
2019-02-12T04:09:57.591Z,32.70
2019-02-12T04:12:33.817Z,32.63
2019-02-12T04:15:07.994Z,29.50
2019-02-12T04:18:01.153Z,30.57
2019-02-12T04:20:51.324Z,29.60
2019-02-12T04:23:41.756Z,28.50
2019-02-12T04:30:00.493Z,28.80
2019-02-12T04:33:12.123Z,28.00
2019-02-12T04:36:11.412Z,28.05
2019-02-12T04:42:12.715Z,30.17
2019-02-12T04:48:15.955Z,29.27
2019-02-12T04:50:52.695Z,27.45
2019-02-12T04:54:01.109Z,30.65
2019-02-12T04:59:55.222Z,30.27
2019-02-12T05:05:55.661Z,28.02
2019-02-12T05:09:05.372Z,30.48
2019-02-12T05:18:02.276Z,30.27
2019-02-12T05:21:16.713Z,27.85
2019-02-12T05:27:03.368Z,29.82
2019-02-12T05:29:44.347Z,30.25
2019-02-12T05:33:01.778Z,29.05
2019-02-12T05:35:36.615Z,32.65
2019-02-12T05:41:46.835Z,32.95
2019-02-12T05:44:18.050Z,32.20
2019-02-12T05:46:48.636Z,36.23
2019-02-12T05:49:26.271Z,33.83
2019-02-12T05:52:02.137Z,44.15
2019-02-12T05:54:36.747Z,38.88
2019-02-12T05:57:09.738Z,35.73
2019-02-12T05:59:50.792Z,35.85
2019-02-12T06:02:25.442Z,40.30
2019-02-12T06:05:08.742Z,38.70
2019-02-12T06:07:40.796Z,37.00
2019-02-12T06:10:20.681Z,35.68
2019-02-12T06:13:11.120Z,35.65
2019-02-12T06:15:48.978Z,36.68
2019-02-12T06:21:20.527Z,38.23
2019-02-12T06:24:27.182Z,37.98
2019-02-12T06:27:04.987Z,36.65
2019-02-12T06:29:57.193Z,36.95
2019-02-12T06:32:37.191Z,35.80
2019-02-12T06:35:33.003Z,34.75
2019-02-12T06:41:57.760Z,31.10
2019-02-12T06:44:31.951Z,30.27
2019-02-12T06:47:20.752Z,33.60
2019-02-12T06:49:51.390Z,33.23
2019-02-12T06:52:28.069Z,34.25
2019-02-12T06:55:04.601Z,29.67
2019-02-12T06:58:13.975Z,29.95
2019-02-12T07:03:53.433Z,32.30
2019-02-12T07:07:15.052Z,32.50
2019-02-12T07:09:59.271Z,34.35
2019-02-12T07:13:04.184Z,32.48
2019-02-12T07:15:45.681Z,37.35
2019-02-12T07:18:37.955Z,38.40
2019-02-12T07:22:01.484Z,34.45
2019-02-12T07:25:18.967Z,36.03
2019-02-12T07:28:17.199Z,38.92
2019-02-12T07:31:39.778Z,40.20
2019-02-12T07:34:50.088Z,47.67
2019-02-12T07:37:48.687Z,47.62
2019-02-12T07:41:06.085Z,53.70
2019-02-12T07:44:05.845Z,55.15
2019-02-12T07:47:17.717Z,46.85
2019-02-12T07:50:45.617Z,53.60
2019-02-12T07:53:50.786Z,48.78
2019-02-12T07:56:50.086Z,48.52
2019-02-12T07:59:34.196Z,48.00
2019-02-12T08:02:53.753Z,47.98
2019-02-12T08:06:02.724Z,50.15
2019-02-12T08:09:25.380Z,47.98
2019-02-12T08:12:35.784Z,44.27
2019-02-12T08:15:24.191Z,45.75
2019-02-12T08:18:46.501Z,47.73
2019-02-12T08:21:59.115Z,45.60
2019-02-12T08:25:23.107Z,44.15
2019-02-12T08:28:35.997Z,44.70
2019-02-12T08:35:02.348Z,42.15
2019-02-12T08:38:29.101Z,38.28
2019-02-12T08:41:58.054Z,38.98
2019-02-12T08:45:25.687Z,37.35
2019-02-12T08:58:16.190Z,29.48
2019-02-12T09:09:20.967Z,29.15
2019-02-12T09:19:34.865Z,25.12
2019-02-12T09:22:42.267Z,23.42
2019-02-12T09:33:18.555Z,19.75
2019-02-12T09:37:04.877Z,18.83
